sensor_id;sensor_type;location;lat;lon;timestamp;pressure;altitude;pressure_sealevel;temperature;humidity
45894;BME280;31603;51.148;16.932;2023-12-04T00:00:31;100902.75;;;-6.29;100.00
45894;BME280;31603;51.148;16.932;2023-12-04T00:03:00;100683.34;;;-7.71;100.00
45894;BME280;31603;51.148;16.932;2023-12-04T00:05:28;100645.16;;;-8.07;100.00
45894;BME280;31603;51.148;16.932;2023-12-04T00:08:00;100645.00;;;-8.04;100.00
45894;BME280;31603;51.148;16.932;2023-12-04T00:10:29;100715.31;;;-7.21;100.00
45894;BME280;31603;51.148;16.932;2023-12-04T00:12:56;100712.31;;;-7.48;100.00
45894;BME280;31603;51.148;16.932;2023-12-04T00:15:23;100767.72;;;-7.18;100.00
45894;BME280;31603;51.148;16.932;2023-12-04T00:17:51;100822.44;;;-6.92;100.00
45894;BME280;31603;51.148;16.932;2023-12-04T00:20:18;100653.56;;;-7.97;100.00
45894;BME280;31603;51.148;16.932;2023-12-04T00:22:45;100611.44;;;-8.41;100.00
45894;BME280;31603;51.148;16.932;2023-12-04T00:25:12;100707.91;;;-7.65;100.00
45894;BME280;31603;51.148;16.932;2023-12-04T00:27:41;100711.44;;;-7.64;100.00
45894;BME280;31603;51.148;16.932;2023-12-04T00:30:09;100868.19;;;-6.65;100.00
45894;BME280;31603;51.148;16.932;2023-12-04T00:32:36;100714.09;;;-7.64;100.00
45894;BME280;31603;51.148;16.932;2023-12-04T00:35:03;100840.69;;;-6.67;100.00
45894;BME280;31603;51.148;16.932;2023-12-04T00:37:31;100799.50;;;-6.81;100.00
45894;BME280;31603;51.148;16.932;2023-12-04T00:40:03;100618.66;;;-7.77;100.00
45894;BME280;31603;51.148;16.932;2023-12-04T00:42:30;100659.69;;;-7.95;100.00
45894;BME280;31603;51.148;16.932;2023-12-04T00:45:03;100881.94;;;-6.56;100.00
45894;BME280;31603;51.148;16.932;2023-12-04T00:47:30;100896.00;;;-6.52;100.00
45894;BME280;31603;51.148;16.932;2023-12-04T00:49:57;100741.38;;;-7.42;100.00
45894;BME280;31603;51.148;16.932;2023-12-04T00:52:43;100594.78;;;-8.46;100.00
45894;BME280;31603;51.148;16.932;2023-12-04T00:55:10;100710.59;;;-7.49;100.00
45894;BME280;31603;51.148;16.932;2023-12-04T00:57:38;100884.38;;;-6.84;100.00
45894;BME280;31603;51.148;16.932;2023-12-04T01:00:26;100592.63;;;-8.22;100.00
45894;BME280;31603;51.148;16.932;2023-12-04T01:02:53;100888.38;;;-5.96;100.00
45894;BME280;31603;51.148;16.932;2023-12-04T01:05:21;100752.81;;;-6.59;100.00
45894;BME280;31603;51.148;16.932;2023-12-04T01:08:25;100887.91;;;-5.89;100.00
45894;BME280;31603;51.148;16.932;2023-12-04T01:10:59;100575.47;;;-7.85;100.00
45894;BME280;31603;51.148;16.932;2023-12-04T01:13:26;100804.75;;;-6.32;100.00
45894;BME280;31603;51.148;16.932;2023-12-04T01:15:55;100876.06;;;-5.85;100.00
45894;BME280;31603;51.148;16.932;2023-12-04T01:18:22;100840.19;;;-5.96;100.00
45894;BME280;31603;51.148;16.932;2023-12-04T01:20:53;100893.94;;;-6.31;100.00
45894;BME280;31603;51.148;16.932;2023-12-04T01:23:58;100588.22;;;-7.90;100.00
45894;BME280;31603;51.148;16.932;2023-12-04T01:29:44;100892.31;;;-6.34;100.00
45894;BME280;31603;51.148;16.932;2023-12-04T01:32:17;100906.47;;;-6.32;100.00
45894;BME280;31603;51.148;16.932;2023-12-04T01:34:46;100778.53;;;-6.88;100.00
45894;BME280;31603;51.148;16.932;2023-12-04T01:37:17;100713.72;;;-7.41;100.00
45894;BME280;31603;51.148;16.932;2023-12-04T01:44:59;100713.81;;;-7.76;100.00
45894;BME280;31603;51.148;16.932;2023-12-04T01:47:28;100664.38;;;-7.83;100.00
45894;BME280;31603;51.148;16.932;2023-12-04T01:49:59;100696.56;;;-7.86;100.00
45894;BME280;31603;51.148;16.932;2023-12-04T01:55:14;100872.25;;;-6.58;100.00
45894;BME280;31603;51.148;16.932;2023-12-04T01:57:47;100641.38;;;-8.03;100.00
45894;BME280;31603;51.148;16.932;2023-12-04T02:00:15;100746.38;;;-7.52;100.00
45894;BME280;31603;51.148;16.932;2023-12-04T02:05:28;100715.75;;;-8.12;100.00
45894;BME280;31603;51.148;16.932;2023-12-04T02:07:57;100669.72;;;-8.00;100.00
45894;BME280;31603;51.148;16.932;2023-12-04T02:10:24;100728.63;;;-7.70;100.00
45894;BME280;31603;51.148;16.932;2023-12-04T02:18:21;100564.09;;;-8.53;100.00
45894;BME280;31603;51.148;16.932;2023-12-04T02:20:50;100697.97;;;-7.96;100.00
45894;BME280;31603;51.148;16.932;2023-12-04T02:23:17;100527.56;;;-9.21;100.00
45894;BME280;31603;51.148;16.932;2023-12-04T02:26:08;100542.94;;;-8.91;100.00
45894;BME280;31603;51.148;16.932;2023-12-04T02:28:42;100728.81;;;-7.73;100.00
45894;BME280;31603;51.148;16.932;2023-12-04T02:31:19;100547.47;;;-8.76;100.00
45894;BME280;31603;51.148;16.932;2023-12-04T02:34:05;100711.81;;;-7.39;100.00
45894;BME280;31603;51.148;16.932;2023-12-04T02:36:37;100849.38;;;-6.64;100.00
45894;BME280;31603;51.148;16.932;2023-12-04T02:39:04;100793.78;;;-7.06;100.00
45894;BME280;31603;51.148;16.932;2023-12-04T02:41:42;100756.53;;;-7.76;100.00
45894;BME280;31603;51.148;16.932;2023-12-04T02:44:14;100846.16;;;-7.19;100.00
45894;BME280;31603;51.148;16.932;2023-12-04T02:46:41;100727.13;;;-7.91;100.00
45894;BME280;31603;51.148;16.932;2023-12-04T02:49:09;100650.50;;;-8.57;100.00
45894;BME280;31603;51.148;16.932;2023-12-04T02:51:37;100886.38;;;-7.05;100.00
45894;BME280;31603;51.148;16.932;2023-12-04T02:54:11;100757.97;;;-7.53;100.00
45894;BME280;31603;51.148;16.932;2023-12-04T02:56:58;100851.84;;;-7.25;100.00
45894;BME280;31603;51.148;16.932;2023-12-04T02:59:32;100851.34;;;-7.16;100.00
45894;BME280;31603;51.148;16.932;2023-12-04T03:02:00;100634.50;;;-8.75;100.00
45894;BME280;31603;51.148;16.932;2023-12-04T03:04:46;100874.91;;;-7.40;100.00
45894;BME280;31603;51.148;16.932;2023-12-04T03:07:16;100557.69;;;-9.37;100.00
45894;BME280;31603;51.148;16.932;2023-12-04T03:09:56;100754.50;;;-8.23;100.00
45894;BME280;31603;51.148;16.932;2023-12-04T03:12:25;100747.53;;;-8.60;100.00
45894;BME280;31603;51.148;16.932;2023-12-04T03:14:59;100525.09;;;-9.79;100.00
45894;BME280;31603;51.148;16.932;2023-12-04T03:17:31;100758.91;;;-8.21;100.00
45894;BME280;31603;51.148;16.932;2023-12-04T03:20:32;100544.38;;;-9.37;100.00
45894;BME280;31603;51.148;16.932;2023-12-04T03:22:59;100827.91;;;-7.96;100.00
45894;BME280;31603;51.148;16.932;2023-12-04T03:25:39;100837.38;;;-8.26;100.00
45894;BME280;31603;51.148;16.932;2023-12-04T03:28:16;100852.09;;;-7.82;100.00
45894;BME280;31603;51.148;16.932;2023-12-04T03:30:58;100681.03;;;-8.99;100.00
45894;BME280;31603;51.148;16.932;2023-12-04T03:33:25;100694.53;;;-8.85;100.00
45894;BME280;31603;51.148;16.932;2023-12-04T03:35:52;100652.28;;;-9.48;100.00
45894;BME280;31603;51.148;16.932;2023-12-04T03:38:19;100799.53;;;-8.34;100.00
45894;BME280;31603;51.148;16.932;2023-12-04T03:40:49;100918.75;;;-7.81;100.00
45894;BME280;31603;51.148;16.932;2023-12-04T03:43:18;100625.59;;;-9.46;100.00
45894;BME280;31603;51.148;16.932;2023-12-04T03:45:45;100816.97;;;-8.44;100.00
45894;BME280;31603;51.148;16.932;2023-12-04T03:48:12;100825.56;;;-8.56;100.00
45894;BME280;31603;51.148;16.932;2023-12-04T03:50:39;100815.63;;;-8.53;100.00
45894;BME280;31603;51.148;16.932;2023-12-04T03:53:06;100869.75;;;-7.97;100.00
45894;BME280;31603;51.148;16.932;2023-12-04T03:55:36;100706.28;;;-9.08;100.00
45894;BME280;31603;51.148;16.932;2023-12-04T03:58:04;100863.91;;;-8.23;100.00
45894;BME280;31603;51.148;16.932;2023-12-04T04:00:32;100724.53;;;-8.62;100.00
45894;BME280;31603;51.148;16.932;2023-12-04T04:02:59;100733.44;;;-8.81;100.00
45894;BME280;31603;51.148;16.932;2023-12-04T04:05:26;100831.25;;;-8.10;100.00
45894;BME280;31603;51.148;16.932;2023-12-04T04:07:53;100803.16;;;-8.17;100.00
45894;BME280;31603;51.148;16.932;2023-12-04T04:10:20;100862.56;;;-8.14;100.00
45894;BME280;31603;51.148;16.932;2023-12-04T04:12:47;100729.25;;;-8.86;100.00
45894;BME280;31603;51.148;16.932;2023-12-04T04:15:15;100852.88;;;-7.97;100.00
45894;BME280;31603;51.148;16.932;2023-12-04T04:17:43;100840.50;;;-7.98;100.00
45894;BME280;31603;51.148;16.932;2023-12-04T04:20:12;100849.63;;;-8.21;100.00
45894;BME280;31603;51.148;16.932;2023-12-04T04:22:40;100854.09;;;-8.22;100.00
45894;BME280;31603;51.148;16.932;2023-12-04T04:25:07;100775.19;;;-8.62;100.00
45894;BME280;31603;51.148;16.932;2023-12-04T04:27:34;100742.19;;;-8.79;100.00
45894;BME280;31603;51.148;16.932;2023-12-04T04:30:02;100845.13;;;-8.02;100.00
45894;BME280;31603;51.148;16.932;2023-12-04T04:32:29;100789.56;;;-8.48;100.00
45894;BME280;31603;51.148;16.932;2023-12-04T04:35:26;100698.53;;;-8.76;100.00
45894;BME280;31603;51.148;16.932;2023-12-04T04:37:53;100653.25;;;-9.12;100.00
45894;BME280;31603;51.148;16.932;2023-12-04T04:40:20;100833.16;;;-8.12;100.00
45894;BME280;31603;51.148;16.932;2023-12-04T04:42:47;100830.75;;;-7.82;100.00
45894;BME280;31603;51.148;16.932;2023-12-04T04:45:19;100788.25;;;-8.39;100.00
45894;BME280;31603;51.148;16.932;2023-12-04T04:48:01;100686.66;;;-9.05;100.00
45894;BME280;31603;51.148;16.932;2023-12-04T04:50:38;100812.63;;;-8.46;100.00
45894;BME280;31603;51.148;16.932;2023-12-04T04:53:06;100664.81;;;-9.50;100.00
45894;BME280;31603;51.148;16.932;2023-12-04T04:58:11;100717.97;;;-9.10;100.00
45894;BME280;31603;51.148;16.932;2023-12-04T05:00:54;100567.69;;;-10.16;100.00
45894;BME280;31603;51.148;16.932;2023-12-04T05:03:21;100696.47;;;-9.25;100.00
45894;BME280;31603;51.148;16.932;2023-12-04T05:06:07;100622.75;;;-9.81;100.00
45894;BME280;31603;51.148;16.932;2023-12-04T05:08:34;100695.97;;;-9.33;100.00
45894;BME280;31603;51.148;16.932;2023-12-04T05:11:07;100793.78;;;-8.80;100.00
45894;BME280;31603;51.148;16.932;2023-12-04T05:13:37;100519.16;;;-10.59;100.00
45894;BME280;31603;51.148;16.932;2023-12-04T05:16:07;100727.38;;;-8.84;100.00
45894;BME280;31603;51.148;16.932;2023-12-04T05:18:45;100713.00;;;-8.99;100.00
45894;BME280;31603;51.148;16.932;2023-12-04T05:21:25;100549.97;;;-10.76;100.00
45894;BME280;31603;51.148;16.932;2023-12-04T05:24:01;100679.91;;;-9.50;100.00
45894;BME280;31603;51.148;16.932;2023-12-04T05:26:37;100599.03;;;-10.04;100.00
45894;BME280;31603;51.148;16.932;2023-12-04T05:29:09;100798.81;;;-8.55;100.00
45894;BME280;31603;51.148;16.932;2023-12-04T05:31:37;100547.00;;;-10.29;100.00
45894;BME280;31603;51.148;16.932;2023-12-04T05:34:10;100800.44;;;-9.07;100.00
45894;BME280;31603;51.148;16.932;2023-12-04T05:36:39;100797.31;;;-8.98;100.00
45894;BME280;31603;51.148;16.932;2023-12-04T05:39:06;100806.03;;;-8.94;100.00
45894;BME280;31603;51.148;16.932;2023-12-04T05:41:35;100735.38;;;-9.60;100.00
45894;BME280;31603;51.148;16.932;2023-12-04T05:44:03;100789.06;;;-9.11;100.00
45894;BME280;31603;51.148;16.932;2023-12-04T05:46:42;100492.38;;;-11.36;100.00
45894;BME280;31603;51.148;16.932;2023-12-04T05:49:10;100794.78;;;-9.20;100.00
45894;BME280;31603;51.148;16.932;2023-12-04T05:51:44;100797.25;;;-9.15;100.00
45894;BME280;31603;51.148;16.932;2023-12-04T05:54:13;100787.47;;;-9.15;100.00
45894;BME280;31603;51.148;16.932;2023-12-04T05:56:40;100589.09;;;-10.20;100.00
45894;BME280;31603;51.148;16.932;2023-12-04T05:59:08;100784.66;;;-9.12;100.00
45894;BME280;31603;51.148;16.932;2023-12-04T06:01:38;100790.19;;;-8.79;100.00
45894;BME280;31603;51.148;16.932;2023-12-04T06:04:05;100695.47;;;-9.22;100.00
45894;BME280;31603;51.148;16.932;2023-12-04T06:06:47;100780.66;;;-8.65;100.00
45894;BME280;31603;51.148;16.932;2023-12-04T06:09:27;100542.78;;;-10.53;100.00
45894;BME280;31603;51.148;16.932;2023-12-04T06:12:13;100712.50;;;-9.45;100.00
45894;BME280;31603;51.148;16.932;2023-12-04T06:15:04;100784.75;;;-8.58;100.00
45894;BME280;31603;51.148;16.932;2023-12-04T06:17:34;100583.94;;;-9.85;100.00
45894;BME280;31603;51.148;16.932;2023-12-04T06:20:06;100774.56;;;-8.67;100.00
45894;BME280;31603;51.148;16.932;2023-12-04T06:22:37;100796.44;;;-8.61;100.00
45894;BME280;31603;51.148;16.932;2023-12-04T06:25:06;100526.00;;;-10.35;100.00
45894;BME280;31603;51.148;16.932;2023-12-04T06:27:35;100793.81;;;-9.17;100.00
45894;BME280;31603;51.148;16.932;2023-12-04T06:30:07;100688.22;;;-9.77;100.00
45894;BME280;31603;51.148;16.932;2023-12-04T06:32:36;100790.91;;;-8.94;100.00
45894;BME280;31603;51.148;16.932;2023-12-04T06:35:05;100530.16;;;-10.48;100.00
45894;BME280;31603;51.148;16.932;2023-12-04T06:37:40;100615.00;;;-10.25;100.00
45894;BME280;31603;51.148;16.932;2023-12-04T06:40:11;100658.75;;;-9.91;100.00
45894;BME280;31603;51.148;16.932;2023-12-04T06:42:39;100788.84;;;-9.06;100.00
45894;BME280;31603;51.148;16.932;2023-12-04T06:45:10;100748.84;;;-9.44;100.00
45894;BME280;31603;51.148;16.932;2023-12-04T06:47:58;100622.16;;;-10.06;100.00
45894;BME280;31603;51.148;16.932;2023-12-04T06:50:31;100757.63;;;-9.04;100.00
45894;BME280;31603;51.148;16.932;2023-12-04T06:52:59;100496.81;;;-10.55;100.00
45894;BME280;31603;51.148;16.932;2023-12-04T06:55:27;100682.06;;;-9.58;100.00
45894;BME280;31603;51.148;16.932;2023-12-04T06:58:03;100782.28;;;-8.99;100.00
45894;BME280;31603;51.148;16.932;2023-12-04T07:00:30;100688.66;;;-9.67;100.00
45894;BME280;31603;51.148;16.932;2023-12-04T07:03:02;100727.13;;;-9.35;100.00
45894;BME280;31603;51.148;16.932;2023-12-04T07:05:55;100774.00;;;-8.93;100.00
45894;BME280;31603;51.148;16.932;2023-12-04T07:08:34;100782.78;;;-8.91;100.00
45894;BME280;31603;51.148;16.932;2023-12-04T07:11:02;100788.06;;;-8.89;100.00
45894;BME280;31603;51.148;16.932;2023-12-04T07:13:58;100799.78;;;-8.75;100.00
45894;BME280;31603;51.148;16.932;2023-12-04T07:16:25;100789.31;;;-8.79;100.00
45894;BME280;31603;51.148;16.932;2023-12-04T07:18:55;100811.94;;;-8.69;100.00
45894;BME280;31603;51.148;16.932;2023-12-04T07:21:35;100788.31;;;-8.77;100.00
45894;BME280;31603;51.148;16.932;2023-12-04T07:24:08;100796.53;;;-8.62;100.00
45894;BME280;31603;51.148;16.932;2023-12-04T07:26:37;100798.56;;;-8.50;100.00
45894;BME280;31603;51.148;16.932;2023-12-04T07:29:04;100798.59;;;-8.33;100.00
45894;BME280;31603;51.148;16.932;2023-12-04T07:31:31;100792.97;;;-7.92;100.00
45894;BME280;31603;51.148;16.932;2023-12-04T07:33:59;100576.16;;;-8.98;100.00
45894;BME280;31603;51.148;16.932;2023-12-04T07:36:31;100792.66;;;-7.02;100.00
45894;BME280;31603;51.148;16.932;2023-12-04T07:38:58;100744.25;;;-7.29;100.00
45894;BME280;31603;51.148;16.932;2023-12-04T07:41:26;100801.31;;;-6.81;100.00
45894;BME280;31603;51.148;16.932;2023-12-04T07:43:57;100700.38;;;-7.09;100.00
45894;BME280;31603;51.148;16.932;2023-12-04T07:46:35;100778.41;;;-6.23;100.00
45894;BME280;31603;51.148;16.932;2023-12-04T07:49:02;100461.22;;;-7.48;100.00
45894;BME280;31603;51.148;16.932;2023-12-04T07:51:31;100777.66;;;-5.95;100.00
45894;BME280;31603;51.148;16.932;2023-12-04T07:54:15;100698.13;;;-6.23;100.00
45894;BME280;31603;51.148;16.932;2023-12-04T07:56:46;100672.69;;;-6.16;100.00
45894;BME280;31603;51.148;16.932;2023-12-04T07:59:13;100777.56;;;-5.79;100.00
45894;BME280;31603;51.148;16.932;2023-12-04T08:01:51;100734.63;;;-5.64;100.00
45894;BME280;31603;51.148;16.932;2023-12-04T08:04:26;100735.41;;;-5.33;100.00
45894;BME280;31603;51.148;16.932;2023-12-04T08:06:53;100761.25;;;-4.62;100.00
45894;BME280;31603;51.148;16.932;2023-12-04T08:09:33;100624.22;;;-5.27;100.00
45894;BME280;31603;51.148;16.932;2023-12-04T08:12:05;100484.59;;;-5.64;100.00
45894;BME280;31603;51.148;16.932;2023-12-04T08:14:34;100718.94;;;-4.04;100.00
45894;BME280;31603;51.148;16.932;2023-12-04T08:17:07;100625.38;;;-4.63;100.00
45894;BME280;31603;51.148;16.932;2023-12-04T08:19:56;100628.88;;;-4.23;100.00
45894;BME280;31603;51.148;16.932;2023-12-04T08:22:23;100625.97;;;-4.07;100.00
45894;BME280;31603;51.148;16.932;2023-12-04T08:24:59;100530.69;;;-4.40;100.00
45894;BME280;31603;51.148;16.932;2023-12-04T08:27:43;100587.84;;;-3.87;100.00
45894;BME280;31603;51.148;16.932;2023-12-04T08:30:12;100689.94;;;-2.62;100.00
45894;BME280;31603;51.148;16.932;2023-12-04T08:32:39;100749.44;;;-2.17;100.00
45894;BME280;31603;51.148;16.932;2023-12-04T08:35:07;100438.91;;;-4.32;100.00
45894;BME280;31603;51.148;16.932;2023-12-04T08:37:39;100662.19;;;-3.49;100.00
45894;BME280;31603;51.148;16.932;2023-12-04T08:40:24;100474.66;;;-4.44;100.00
45894;BME280;31603;51.148;16.932;2023-12-04T08:43:37;100447.81;;;-4.82;100.00
45894;BME280;31603;51.148;16.932;2023-12-04T08:46:05;100691.34;;;-3.43;100.00
45894;BME280;31603;51.148;16.932;2023-12-04T08:48:57;100754.72;;;-2.39;100.00
45894;BME280;31603;51.148;16.932;2023-12-04T08:51:32;100484.50;;;-4.06;100.00
45894;BME280;31603;51.148;16.932;2023-12-04T08:54:01;100643.41;;;-2.75;100.00
45894;BME280;31603;51.148;16.932;2023-12-04T08:56:41;100477.38;;;-3.95;100.00
45894;BME280;31603;51.148;16.932;2023-12-04T08:59:23;100700.72;;;-2.62;100.00
45894;BME280;31603;51.148;16.932;2023-12-04T09:02:03;100750.16;;;-1.44;100.00
45894;BME280;31603;51.148;16.932;2023-12-04T09:04:50;100699.97;;;-2.16;100.00
45894;BME280;31603;51.148;16.932;2023-12-04T09:07:23;100762.81;;;-1.45;100.00
45894;BME280;31603;51.148;16.932;2023-12-04T09:09:50;100478.53;;;-3.25;100.00
45894;BME280;31603;51.148;16.932;2023-12-04T09:12:17;100647.97;;;-2.29;100.00
45894;BME280;31603;51.148;16.932;2023-12-04T09:14:46;100709.72;;;-2.26;100.00
45894;BME280;31603;51.148;16.932;2023-12-04T09:17:31;100676.31;;;-2.48;100.00
45894;BME280;31603;51.148;16.932;2023-12-04T09:20:09;100754.47;;;-1.31;100.00
45894;BME280;31603;51.148;16.932;2023-12-04T09:22:37;100699.97;;;-1.70;100.00
45894;BME280;31603;51.148;16.932;2023-12-04T09:25:06;100720.25;;;-1.19;100.00
45894;BME280;31603;51.148;16.932;2023-12-04T09:27:36;100579.00;;;-1.74;100.00
45894;BME280;31603;51.148;16.932;2023-12-04T09:30:05;100649.28;;;-0.87;100.00
45894;BME280;31603;51.148;16.932;2023-12-04T09:32:38;100637.84;;;-1.23;100.00
45894;BME280;31603;51.148;16.932;2023-12-04T09:35:09;100634.69;;;-0.85;100.00
45894;BME280;31603;51.148;16.932;2023-12-04T09:37:51;100554.72;;;-0.97;100.00
45894;BME280;31603;51.148;16.932;2023-12-04T09:40:28;100584.16;;;-0.62;100.00
45894;BME280;31603;51.148;16.932;2023-12-04T09:43:09;100599.16;;;0.36;100.00
45894;BME280;31603;51.148;16.932;2023-12-04T09:45:49;100737.09;;;0.99;100.00
45894;BME280;31603;51.148;16.932;2023-12-04T09:48:49;100714.44;;;1.00;100.00
45894;BME280;31603;51.148;16.932;2023-12-04T09:51:22;100692.81;;;1.09;100.00
45894;BME280;31603;51.148;16.932;2023-12-04T09:53:52;100435.56;;;-0.41;100.00
45894;BME280;31603;51.148;16.932;2023-12-04T09:56:28;100537.88;;;0.56;100.00
45894;BME280;31603;51.148;16.932;2023-12-04T09:59:18;100569.13;;;0.79;100.00
45894;BME280;31603;51.148;16.932;2023-12-04T10:02:20;100412.91;;;0.31;100.00
45894;BME280;31603;51.148;16.932;2023-12-04T10:05:01;100650.72;;;0.65;100.00
45894;BME280;31603;51.148;16.932;2023-12-04T10:07:32;100655.56;;;1.02;100.00
45894;BME280;31603;51.148;16.932;2023-12-04T10:10:01;100646.66;;;1.30;100.00
45894;BME280;31603;51.148;16.932;2023-12-04T10:12:33;100643.63;;;1.14;100.00
45894;BME280;31603;51.148;16.932;2023-12-04T10:15:18;100630.84;;;1.74;100.00
45894;BME280;31603;51.148;16.932;2023-12-04T10:18:01;100628.13;;;1.55;100.00
45894;BME280;31603;51.148;16.932;2023-12-04T10:20:39;100630.72;;;1.47;100.00
45894;BME280;31603;51.148;16.932;2023-12-04T10:23:43;100628.56;;;1.79;100.00
45894;BME280;31603;51.148;16.932;2023-12-04T10:26:24;100616.44;;;1.83;100.00
45894;BME280;31603;51.148;16.932;2023-12-04T10:28:58;100621.56;;;1.86;100.00
45894;BME280;31603;51.148;16.932;2023-12-04T10:31:34;100618.53;;;1.12;100.00
45894;BME280;31603;51.148;16.932;2023-12-04T10:39:55;100617.00;;;1.97;100.00
45894;BME280;31603;51.148;16.932;2023-12-04T10:42:23;100615.56;;;1.83;100.00
45894;BME280;31603;51.148;16.932;2023-12-04T10:44:51;100609.31;;;1.43;100.00
45894;BME280;31603;51.148;16.932;2023-12-04T10:47:32;100606.00;;;1.59;100.00
45894;BME280;31603;51.148;16.932;2023-12-04T10:50:00;100598.31;;;1.64;100.00
45894;BME280;31603;51.148;16.932;2023-12-04T10:52:33;100607.16;;;1.28;100.00
45894;BME280;31603;51.148;16.932;2023-12-04T10:55:02;100598.75;;;1.60;99.20
45894;BME280;31603;51.148;16.932;2023-12-04T10:57:39;100605.47;;;1.75;98.82
45894;BME280;31603;51.148;16.932;2023-12-04T11:00:17;100600.13;;;2.03;99.19
45894;BME280;31603;51.148;16.932;2023-12-04T11:03:02;100601.47;;;1.60;96.86
45894;BME280;31603;51.148;16.932;2023-12-04T11:05:37;100602.09;;;2.57;96.83
45894;BME280;31603;51.148;16.932;2023-12-04T11:08:22;100597.97;;;2.06;95.04
45894;BME280;31603;51.148;16.932;2023-12-04T11:19:20;100589.75;;;1.69;90.83
45894;BME280;31603;51.148;16.932;2023-12-04T11:21:53;100586.72;;;2.11;93.62
45894;BME280;31603;51.148;16.932;2023-12-04T11:24:39;100582.56;;;3.09;89.37
45894;BME280;31603;51.148;16.932;2023-12-04T11:27:18;100575.34;;;2.35;87.04
45894;BME280;31603;51.148;16.932;2023-12-04T11:29:45;100576.41;;;2.52;89.04
45894;BME280;31603;51.148;16.932;2023-12-04T11:32:20;100572.09;;;2.86;86.50
45894;BME280;31603;51.148;16.932;2023-12-04T11:37:45;100557.31;;;2.71;86.40
45894;BME280;31603;51.148;16.932;2023-12-04T11:40:15;100555.06;;;2.67;85.34
45894;BME280;31603;51.148;16.932;2023-12-04T11:42:47;100559.31;;;2.97;85.95
45894;BME280;31603;51.148;16.932;2023-12-04T11:45:23;100538.44;;;3.15;86.63
45894;BME280;31603;51.148;16.932;2023-12-04T11:47:54;100538.53;;;3.05;84.76
45894;BME280;31603;51.148;16.932;2023-12-04T11:50:21;100529.19;;;3.88;81.61
45894;BME280;31603;51.148;16.932;2023-12-04T11:55:43;100523.72;;;4.05;77.55
45894;BME280;31603;51.148;16.932;2023-12-04T11:58:10;100511.44;;;3.75;75.32
45894;BME280;31603;51.148;16.932;2023-12-04T12:00:38;100519.56;;;2.96;75.27
45894;BME280;31603;51.148;16.932;2023-12-04T12:03:17;100502.53;;;2.76;78.08
45894;BME280;31603;51.148;16.932;2023-12-04T12:05:48;100507.88;;;2.12;80.98
45894;BME280;31603;51.148;16.932;2023-12-04T12:08:18;100505.25;;;2.21;83.56
45894;BME280;31603;51.148;16.932;2023-12-04T12:10:49;100494.47;;;2.11;85.43
45894;BME280;31603;51.148;16.932;2023-12-04T12:13:18;100500.34;;;2.34;86.62
45894;BME280;31603;51.148;16.932;2023-12-04T12:15:48;100498.88;;;1.65;84.40
45894;BME280;31603;51.148;16.932;2023-12-04T12:18:23;100485.19;;;0.79;89.22
45894;BME280;31603;51.148;16.932;2023-12-04T12:20:51;100485.78;;;0.92;93.71
45894;BME280;31603;51.148;16.932;2023-12-04T12:23:39;100486.38;;;1.06;95.48
45894;BME280;31603;51.148;16.932;2023-12-04T12:26:09;100480.66;;;0.89;95.78
45894;BME280;31603;51.148;16.932;2023-12-04T12:28:36;100468.28;;;1.06;97.74
45894;BME280;31603;51.148;16.932;2023-12-04T12:31:20;100476.25;;;0.88;98.96
45894;BME280;31603;51.148;16.932;2023-12-04T12:34:00;100471.81;;;0.58;99.23
45894;BME280;31603;51.148;16.932;2023-12-04T12:36:35;100462.34;;;0.33;100.00
45894;BME280;31603;51.148;16.932;2023-12-04T12:39:05;100476.72;;;0.43;100.00
45894;BME280;31603;51.148;16.932;2023-12-04T12:41:38;100462.16;;;0.15;100.00
45894;BME280;31603;51.148;16.932;2023-12-04T12:44:10;100452.38;;;0.34;100.00
45894;BME280;31603;51.148;16.932;2023-12-04T12:46:47;100457.16;;;0.20;100.00
45894;BME280;31603;51.148;16.932;2023-12-04T12:49:14;100447.34;;;-0.21;100.00
45894;BME280;31603;51.148;16.932;2023-12-04T12:51:41;100408.59;;;-0.62;100.00
45894;BME280;31603;51.148;16.932;2023-12-04T12:54:08;100402.88;;;-0.68;100.00
45894;BME280;31603;51.148;16.932;2023-12-04T12:56:37;100376.84;;;-0.69;100.00
45894;BME280;31603;51.148;16.932;2023-12-04T12:59:05;100441.53;;;-0.47;100.00
45894;BME280;31603;51.148;16.932;2023-12-04T13:01:32;100428.22;;;-0.29;100.00
45894;BME280;31603;51.148;16.932;2023-12-04T13:04:00;100428.13;;;-0.49;100.00
45894;BME280;31603;51.148;16.932;2023-12-04T13:06:27;100402.63;;;-0.86;100.00
45894;BME280;31603;51.148;16.932;2023-12-04T13:08:54;100416.66;;;-0.71;100.00
45894;BME280;31603;51.148;16.932;2023-12-04T13:11:21;100420.00;;;-1.00;100.00
45894;BME280;31603;51.148;16.932;2023-12-04T13:13:49;100412.94;;;-0.91;100.00
45894;BME280;31603;51.148;16.932;2023-12-04T13:16:15;100417.69;;;-0.84;100.00
45894;BME280;31603;51.148;16.932;2023-12-04T13:18:42;100420.97;;;-0.80;100.00
45894;BME280;31603;51.148;16.932;2023-12-04T13:21:09;100416.19;;;-0.98;100.00
45894;BME280;31603;51.148;16.932;2023-12-04T13:23:36;100403.03;;;-1.12;100.00
45894;BME280;31603;51.148;16.932;2023-12-04T13:26:04;100403.88;;;-1.43;100.00
45894;BME280;31603;51.148;16.932;2023-12-04T13:28:30;100395.25;;;-1.58;100.00
45894;BME280;31603;51.148;16.932;2023-12-04T13:30:58;100398.03;;;-1.92;100.00
45894;BME280;31603;51.148;16.932;2023-12-04T13:33:25;100392.47;;;-1.79;100.00
45894;BME280;31603;51.148;16.932;2023-12-04T13:35:52;100390.03;;;-1.82;100.00
45894;BME280;31603;51.148;16.932;2023-12-04T13:38:19;100391.00;;;-1.72;100.00
45894;BME280;31603;51.148;16.932;2023-12-04T13:40:46;100393.13;;;-1.87;100.00
45894;BME280;31603;51.148;16.932;2023-12-04T13:43:25;100387.84;;;-1.77;100.00